createdAt,value
2023-11-18T00:00:49.770Z,101383.16
2023-11-18T00:03:51.412Z,101381.84
2023-11-18T00:06:53.018Z,101386.47
2023-11-18T00:09:54.501Z,101382.56
2023-11-18T00:12:56.017Z,101374.78
2023-11-18T00:15:57.529Z,101377.41
2023-11-18T00:18:59.041Z,101375.84
2023-11-18T00:22:00.547Z,101379.88
2023-11-18T00:25:02.093Z,101366.81
2023-11-18T00:28:03.623Z,101367.53
2023-11-18T00:31:05.233Z,101376.34
2023-11-18T00:34:06.799Z,101370.72
2023-11-18T00:37:08.336Z,101366.22
2023-11-18T00:40:09.847Z,101379.09
2023-11-18T00:43:11.452Z,101386.03
2023-11-18T00:46:12.964Z,101384.84
2023-11-18T00:49:14.518Z,101383.25
2023-11-18T00:52:16.104Z,101382.78
2023-11-18T00:55:17.600Z,101380.16
2023-11-18T00:58:19.128Z,101380.03
2023-11-18T01:01:20.650Z,101387.69
2023-11-18T01:04:22.142Z,101370.56
2023-11-18T01:07:23.665Z,101373.28
2023-11-18T01:10:25.195Z,101368.53
2023-11-18T01:13:26.748Z,101368.81
2023-11-18T01:16:28.324Z,101372.22
2023-11-18T01:19:29.907Z,101373.16
2023-11-18T01:22:31.439Z,101378.47
2023-11-18T01:25:32.960Z,101368.00
2023-11-18T01:28:34.524Z,101371.06
2023-11-18T01:31:47.454Z,101371.63
2023-11-18T01:34:53.820Z,101370.91
2023-11-18T01:37:55.414Z,101367.69
2023-11-18T01:40:57.004Z,101371.56
2023-11-18T01:43:58.560Z,101368.97
2023-11-18T01:47:00.158Z,101381.41
2023-11-18T01:50:01.701Z,101383.19
2023-11-18T01:53:03.290Z,101380.50
2023-11-18T01:56:04.843Z,101380.56
2023-11-18T01:59:06.435Z,101377.91
2023-11-18T02:02:08.107Z,101376.88
2023-11-18T02:05:09.806Z,101380.84
2023-11-18T02:08:11.391Z,101389.22
2023-11-18T02:11:12.914Z,101380.63
2023-11-18T02:14:14.448Z,101389.72
2023-11-18T02:17:15.927Z,101390.28
2023-11-18T02:20:17.965Z,101389.06
2023-11-18T02:23:19.645Z,101386.34
2023-11-18T02:26:21.141Z,101375.38
2023-11-18T02:29:22.735Z,101391.53
2023-11-18T02:32:24.819Z,101387.06
2023-11-18T02:35:26.569Z,101384.75
2023-11-18T02:38:28.051Z,101392.13
2023-11-18T02:41:29.524Z,101386.88
2023-11-18T02:44:31.001Z,101383.25
2023-11-18T02:47:32.577Z,101385.28
2023-11-18T02:50:34.140Z,101381.84
2023-11-18T02:53:35.673Z,101379.78
2023-11-18T02:56:37.146Z,101367.59
2023-11-18T02:59:38.641Z,101374.97
2023-11-18T03:02:40.270Z,101373.22
2023-11-18T03:05:41.933Z,101364.59
2023-11-18T03:08:43.414Z,101367.16
2023-11-18T03:11:44.977Z,101359.28
2023-11-18T03:14:46.498Z,101364.28
2023-11-18T03:17:48.029Z,101360.34
2023-11-18T03:20:49.588Z,101365.38
2023-11-18T03:23:51.098Z,101371.75
2023-11-18T03:26:52.581Z,101363.44
2023-11-18T03:29:54.140Z,101364.31
2023-11-18T03:32:55.722Z,101377.34
2023-11-18T03:35:57.249Z,101386.72
2023-11-18T03:38:58.947Z,101380.25
2023-11-18T03:42:00.509Z,101363.59
2023-11-18T03:45:02.027Z,101369.41
2023-11-18T03:48:03.512Z,101373.16
2023-11-18T03:51:05.022Z,101370.34
2023-11-18T03:54:06.556Z,101361.06
2023-11-18T03:57:08.044Z,101355.56
2023-11-18T04:00:09.553Z,101348.88
2023-11-18T04:03:11.106Z,101343.25
2023-11-18T04:06:12.636Z,101341.69
2023-11-18T04:09:14.141Z,101351.00
2023-11-18T04:12:15.678Z,101344.00
2023-11-18T04:15:17.153Z,101346.69
2023-11-18T04:18:18.730Z,101339.94
2023-11-18T04:21:20.392Z,101347.19
2023-11-18T04:24:21.873Z,101350.09
2023-11-18T04:27:23.489Z,101352.09
2023-11-18T04:30:25.003Z,101351.41
2023-11-18T04:33:26.501Z,101346.91
2023-11-18T04:36:27.976Z,101350.88
2023-11-18T04:39:29.468Z,101351.91
2023-11-18T04:42:30.998Z,101352.31
2023-11-18T04:45:32.640Z,101353.06
2023-11-18T04:48:34.278Z,101352.44
2023-11-18T04:51:35.980Z,101358.81
2023-11-18T04:54:37.494Z,101349.00
2023-11-18T04:57:38.997Z,101357.69
2023-11-18T05:00:40.561Z,101347.44
2023-11-18T05:03:42.170Z,101338.41
2023-11-18T05:06:43.759Z,101337.03
2023-11-18T05:09:45.307Z,101338.75
2023-11-18T05:12:46.815Z,101333.88
2023-11-18T05:15:48.613Z,101330.53
2023-11-18T05:18:50.286Z,101319.84
2023-11-18T05:21:51.808Z,101321.53
2023-11-18T05:24:53.472Z,101321.31
2023-11-18T05:27:55.074Z,101318.47
2023-11-18T05:30:56.594Z,101315.19
2023-11-18T05:33:58.118Z,101312.59
2023-11-18T05:36:59.639Z,101301.75
2023-11-18T05:40:01.151Z,101309.63
2023-11-18T05:43:02.655Z,101305.81
2023-11-18T05:46:04.189Z,101305.97
2023-11-18T05:49:05.730Z,101306.06
2023-11-18T05:52:07.247Z,101306.44
2023-11-18T05:55:08.736Z,101304.88
2023-11-18T05:58:10.282Z,101309.13
2023-11-18T06:01:11.764Z,101303.81
2023-11-18T06:04:13.270Z,101309.66
2023-11-18T06:07:14.820Z,101299.47
2023-11-18T06:10:16.333Z,101291.84
2023-11-18T06:13:17.857Z,101284.84
2023-11-18T06:16:19.364Z,101276.72
2023-11-18T06:19:20.842Z,101278.38
2023-11-18T06:22:24.274Z,101278.06
2023-11-18T06:25:27.389Z,101268.97
2023-11-18T06:28:28.889Z,101264.03
2023-11-18T06:31:30.464Z,101278.97
2023-11-18T06:34:32.075Z,101273.97
2023-11-18T06:37:33.560Z,101290.72
2023-11-18T06:40:35.261Z,101290.00
2023-11-18T06:43:36.920Z,101300.06
2023-11-18T06:46:38.492Z,101293.94
2023-11-18T06:49:40.120Z,101295.78
2023-11-18T06:52:41.637Z,101291.94
2023-11-18T06:55:43.170Z,101290.34
2023-11-18T06:58:44.687Z,101280.91
2023-11-18T07:01:46.873Z,101274.19
2023-11-18T07:04:48.669Z,101274.72
2023-11-18T07:07:50.233Z,101269.41
2023-11-18T07:10:51.775Z,101267.38
2023-11-18T07:13:53.302Z,101270.59
2023-11-18T07:16:54.797Z,101271.25
2023-11-18T07:19:56.359Z,101291.78
2023-11-18T07:22:57.901Z,101311.09
2023-11-18T07:25:59.443Z,101292.88
2023-11-18T07:29:01.010Z,101282.97
2023-11-18T07:32:02.550Z,101301.50
2023-11-18T07:35:04.120Z,101301.72
2023-11-18T07:38:05.682Z,101297.16
2023-11-18T07:41:07.224Z,101298.56
2023-11-18T07:44:08.854Z,101299.16
2023-11-18T07:47:10.522Z,101306.78
2023-11-18T07:50:12.118Z,101311.13
2023-11-18T07:53:13.720Z,101314.38
2023-11-18T07:56:15.289Z,101305.59
2023-11-18T07:59:16.804Z,101298.84
2023-11-18T08:02:18.382Z,101307.63
2023-11-18T08:05:19.925Z,101304.66
2023-11-18T08:08:21.486Z,101305.09
2023-11-18T08:11:23.077Z,101294.16
2023-11-18T08:14:24.650Z,101299.66
2023-11-18T08:17:26.329Z,101282.31
2023-11-18T08:20:27.923Z,101264.41
2023-11-18T08:23:29.529Z,101264.91
2023-11-18T08:26:31.171Z,101272.94
2023-11-18T08:29:32.700Z,101272.72
2023-11-18T08:32:34.285Z,101279.66
2023-11-18T08:35:35.819Z,101271.41
2023-11-18T08:38:37.369Z,101267.25
2023-11-18T08:41:38.884Z,101257.22
2023-11-18T08:44:40.441Z,101257.22
2023-11-18T08:47:42.019Z,101267.03
2023-11-18T08:50:43.575Z,101266.56
2023-11-18T08:53:45.078Z,101267.50
2023-11-18T08:56:46.591Z,101268.47
2023-11-18T08:59:48.085Z,101267.72
2023-11-18T09:02:54.235Z,101271.22
2023-11-18T09:05:56.180Z,101262.03
2023-11-18T09:08:57.660Z,101262.84
2023-11-18T09:11:59.154Z,101260.72
2023-11-18T09:15:00.638Z,101260.78
2023-11-18T09:18:02.176Z,101254.16
2023-11-18T09:21:03.731Z,101256.38
2023-11-18T09:24:05.255Z,101265.22
2023-11-18T09:27:06.772Z,101253.41
2023-11-18T09:30:08.288Z,101257.28
2023-11-18T09:33:09.799Z,101261.47
2023-11-18T09:36:11.287Z,101256.59
2023-11-18T09:39:12.832Z,101260.81
2023-11-18T09:42:14.347Z,101257.72
2023-11-18T09:45:15.875Z,101255.75
2023-11-18T09:48:17.350Z,101264.50
2023-11-18T09:51:18.888Z,101256.34
2023-11-18T09:54:20.449Z,101259.16
2023-11-18T09:57:21.985Z,101262.97
2023-11-18T10:00:23.483Z,101258.69
2023-11-18T10:03:25.084Z,101270.88
2023-11-18T10:06:26.601Z,101275.44
2023-11-18T10:09:28.128Z,101261.59
2023-11-18T10:12:29.639Z,101259.91
2023-11-18T10:15:31.151Z,101250.31
2023-11-18T10:18:32.718Z,101259.91
2023-11-18T10:21:34.249Z,101246.19
2023-11-18T10:24:35.807Z,101241.13
2023-11-18T10:27:37.385Z,101235.25
2023-11-18T10:30:38.884Z,101247.03
2023-11-18T10:33:40.436Z,101240.72
2023-11-18T10:36:41.972Z,101235.84
2023-11-18T10:39:43.528Z,101236.88
2023-11-18T10:42:45.056Z,101224.06
2023-11-18T10:45:46.579Z,101218.25
2023-11-18T10:48:48.054Z,101208.47
2023-11-18T10:51:49.618Z,101202.06
2023-11-18T10:54:51.098Z,101201.50
2023-11-18T10:57:52.582Z,101195.50
2023-11-18T11:00:54.120Z,101190.72
2023-11-18T11:03:55.599Z,101176.59
2023-11-18T11:06:57.126Z,101177.56
2023-11-18T11:09:58.594Z,101174.81
2023-11-18T11:13:00.166Z,101175.94
2023-11-18T11:16:01.645Z,101173.97
2023-11-18T11:19:03.133Z,101170.38
2023-11-18T11:22:04.638Z,101157.16
2023-11-18T11:25:06.118Z,101148.84
2023-11-18T11:28:07.625Z,101147.88
2023-11-18T11:31:09.156Z,101148.75
2023-11-18T11:34:10.667Z,101143.59
2023-11-18T11:37:12.168Z,101140.78
2023-11-18T11:40:13.720Z,101131.34
2023-11-18T11:43:15.278Z,101124.59
2023-11-18T11:46:16.837Z,101106.16
2023-11-18T11:49:18.405Z,101102.81
2023-11-18T11:52:19.902Z,101098.00
2023-11-18T11:55:21.457Z,101096.75
2023-11-18T11:58:22.969Z,101099.41
2023-11-18T12:01:24.494Z,101109.84
2023-11-18T12:04:26.069Z,101102.13
2023-11-18T12:07:27.572Z,101102.81
2023-11-18T12:10:29.095Z,101099.41
2023-11-18T12:13:30.592Z,101104.47
2023-11-18T12:16:32.120Z,101089.31
2023-11-18T12:19:33.646Z,101091.31
2023-11-18T12:22:35.136Z,101091.84
2023-11-18T12:25:36.738Z,101082.25
2023-11-18T12:28:38.265Z,101069.47
2023-11-18T12:31:39.806Z,101054.66
2023-11-18T12:34:41.393Z,101042.44
2023-11-18T12:37:42.915Z,101036.13
2023-11-18T12:40:44.435Z,101024.84
2023-11-18T12:43:45.946Z,101029.09
2023-11-18T12:46:47.463Z,101028.56
2023-11-18T12:49:48.975Z,101004.09
2023-11-18T12:52:50.584Z,100995.47
2023-11-18T12:55:52.126Z,100988.09
2023-11-18T12:58:53.722Z,100979.44
2023-11-18T13:01:55.447Z,100951.75
2023-11-18T13:04:57.111Z,100951.09
2023-11-18T13:07:58.776Z,100948.47
2023-11-18T13:11:00.316Z,100951.13
2023-11-18T13:14:01.921Z,100949.00
2023-11-18T13:17:03.513Z,100940.47
2023-11-18T13:20:05.110Z,100922.34
2023-11-18T13:23:06.674Z,100916.84
2023-11-18T13:26:08.324Z,100902.84
2023-11-18T13:29:09.854Z,100907.19
2023-11-18T13:32:11.481Z,100915.19
2023-11-18T13:35:13.047Z,100926.78
2023-11-18T13:38:14.670Z,100935.84
2023-11-18T13:41:16.251Z,100933.94
2023-11-18T13:44:17.856Z,100924.13
2023-11-18T13:47:19.469Z,100927.56
2023-11-18T13:50:21.154Z,100928.88
2023-11-18T13:53:22.686Z,100920.56
2023-11-18T13:56:24.231Z,100921.16
2023-11-18T13:59:25.758Z,100927.81
2023-11-18T14:02:27.414Z,100919.69
2023-11-18T14:05:29.140Z,100923.81
2023-11-18T14:08:30.866Z,100915.19
2023-11-18T14:11:32.454Z,100907.19
2023-11-18T14:14:34.012Z,100898.41
2023-11-18T14:17:35.725Z,100897.88
2023-11-18T14:20:37.293Z,100893.47
2023-11-18T14:23:38.913Z,100891.38
2023-11-18T14:26:40.574Z,100899.78
2023-11-18T14:29:42.144Z,100880.81
2023-11-18T14:32:43.633Z,100873.03
2023-11-18T14:35:45.148Z,100859.34
2023-11-18T14:38:46.739Z,100850.16
2023-11-18T14:41:48.329Z,100840.16
2023-11-18T14:44:49.805Z,100832.13
2023-11-18T14:47:51.446Z,100818.22
2023-11-18T14:50:53.028Z,100813.47
2023-11-18T14:53:54.578Z,100813.63
2023-11-18T14:56:56.126Z,100806.66
2023-11-18T14:59:57.602Z,100802.34
2023-11-18T15:03:00.545Z,100801.81
2023-11-18T15:06:02.246Z,100787.56
2023-11-18T15:09:03.774Z,100773.03
2023-11-18T15:12:05.300Z,100766.84
2023-11-18T15:15:06.815Z,100760.16
2023-11-18T15:18:08.601Z,100763.63
2023-11-18T15:21:10.177Z,100759.97
2023-11-18T15:24:11.696Z,100759.31
2023-11-18T15:27:13.210Z,100745.69
2023-11-18T15:30:14.729Z,100731.72
2023-11-18T15:33:16.489Z,100737.09
2023-11-18T15:36:18.175Z,100727.34
2023-11-18T15:39:19.688Z,100720.56
2023-11-18T15:42:21.179Z,100709.91
2023-11-18T15:45:22.666Z,100698.22
2023-11-18T15:48:24.180Z,100722.25
2023-11-18T15:51:25.658Z,100728.25
2023-11-18T15:54:27.156Z,100706.09
2023-11-18T15:57:28.814Z,100683.69
2023-11-18T16:00:30.358Z,100665.59
2023-11-18T16:03:31.959Z,100650.75
2023-11-18T16:06:33.504Z,100646.38
2023-11-18T16:09:35.166Z,100651.59
2023-11-18T16:12:36.723Z,100611.56
2023-11-18T16:15:38.209Z,100591.38
2023-11-18T16:18:39.726Z,100595.44
2023-11-18T16:21:41.268Z,100588.72
2023-11-18T16:24:42.753Z,100584.09
2023-11-18T16:27:44.284Z,100591.94
2023-11-18T16:30:45.777Z,100592.81
2023-11-18T16:33:47.380Z,100597.09
2023-11-18T16:36:48.882Z,100600.53
2023-11-18T16:39:52.342Z,100607.16
2023-11-18T16:42:54.048Z,100596.34
2023-11-18T16:45:55.583Z,100582.94
2023-11-18T16:48:57.083Z,100568.06
2023-11-18T16:52:01.414Z,100556.53
2023-11-18T16:55:04.561Z,100548.75
2023-11-18T16:58:06.086Z,100538.34
2023-11-18T17:01:07.651Z,100531.16
2023-11-18T17:04:09.344Z,100536.19
2023-11-18T17:07:11.040Z,100532.09
2023-11-18T17:10:13.094Z,100528.25
2023-11-18T17:13:14.834Z,100531.25
2023-11-18T17:16:17.749Z,100533.94
2023-11-18T17:19:19.390Z,100526.22
2023-11-18T17:22:20.943Z,100520.31
2023-11-18T17:25:22.536Z,100519.81
2023-11-18T17:28:24.088Z,100496.25
2023-11-18T17:31:25.653Z,100501.88
2023-11-18T17:34:27.117Z,100492.47
2023-11-18T17:37:28.628Z,100488.09
2023-11-18T17:40:30.134Z,100484.38
2023-11-18T17:43:31.707Z,100473.25
2023-11-18T17:46:33.243Z,100481.47
2023-11-18T17:49:34.771Z,100483.34
2023-11-18T17:52:36.287Z,100483.41
2023-11-18T17:55:37.862Z,100491.53
2023-11-18T17:58:39.385Z,100478.13
2023-11-18T18:01:40.970Z,100477.06
2023-11-18T18:04:42.467Z,100468.09
2023-11-18T18:07:43.993Z,100458.28
2023-11-18T18:10:45.513Z,100456.84
2023-11-18T18:13:47.039Z,100450.13
2023-11-18T18:16:48.538Z,100430.09
2023-11-18T18:19:50.109Z,100447.25
2023-11-18T18:22:51.619Z,100445.59
2023-11-18T18:25:53.139Z,100458.78
2023-11-18T18:28:56.779Z,100459.56
2023-11-18T18:31:59.817Z,100464.88
2023-11-18T18:35:01.432Z,100465.22
2023-11-18T18:38:03.149Z,100474.94
2023-11-18T18:41:04.834Z,100479.50
2023-11-18T18:44:06.440Z,100464.19
2023-11-18T18:47:08.010Z,100466.44
2023-11-18T18:50:09.645Z,100467.84
2023-11-18T18:53:11.207Z,100473.00
2023-11-18T18:56:12.786Z,100484.91
2023-11-18T18:59:14.311Z,100478.53
2023-11-18T19:02:16.092Z,100460.31
2023-11-18T19:05:17.609Z,100464.56
2023-11-18T19:08:19.176Z,100463.16
2023-11-18T19:11:20.732Z,100450.25
2023-11-18T19:14:22.364Z,100440.53
2023-11-18T19:17:24.041Z,100436.81
2023-11-18T19:20:25.629Z,100422.34
2023-11-18T19:23:27.234Z,100406.66
2023-11-18T19:26:28.838Z,100402.84
2023-11-18T19:29:30.416Z,100397.81
2023-11-18T19:32:32.024Z,100383.53
2023-11-18T19:35:33.634Z,100374.81
2023-11-18T19:38:35.218Z,100368.31
2023-11-18T19:41:36.802Z,100367.75
2023-11-18T19:44:38.920Z,100383.22
2023-11-18T19:47:40.681Z,100404.75
2023-11-18T19:50:42.288Z,100417.00
2023-11-18T19:53:43.888Z,100407.66
2023-11-18T19:56:45.445Z,100396.16
2023-11-18T19:59:46.964Z,100388.81
2023-11-18T20:02:48.746Z,100386.81
2023-11-18T20:05:50.351Z,100393.84
2023-11-18T20:08:51.843Z,100389.19
2023-11-18T20:11:53.394Z,100386.69
2023-11-18T20:14:54.935Z,100395.31
2023-11-18T20:17:56.609Z,100387.63
2023-11-18T20:20:58.215Z,100380.56
2023-11-18T20:23:59.710Z,100378.31
2023-11-18T20:27:01.197Z,100376.13
2023-11-18T20:30:02.757Z,100371.81
2023-11-18T20:33:04.304Z,100365.97
2023-11-18T20:36:05.815Z,100371.56
2023-11-18T20:39:07.378Z,100369.53
2023-11-18T20:42:08.898Z,100370.66
2023-11-18T20:45:10.400Z,100368.94
2023-11-18T20:48:11.934Z,100366.81
2023-11-18T20:51:13.433Z,100363.31
2023-11-18T20:54:14.971Z,100345.13
2023-11-18T20:57:16.477Z,100350.88
2023-11-18T21:00:18.024Z,100343.09
2023-11-18T21:03:19.661Z,100344.03
2023-11-18T21:06:22.259Z,100338.41
2023-11-18T21:09:24.264Z,100330.38
2023-11-18T21:12:25.801Z,100319.50
2023-11-18T21:15:27.273Z,100309.50
2023-11-18T21:18:28.793Z,100307.13
2023-11-18T21:21:30.296Z,100314.16
2023-11-18T21:24:31.766Z,100320.66
2023-11-18T21:27:33.272Z,100333.19
2023-11-18T21:30:34.919Z,100319.41
2023-11-18T21:33:36.437Z,100321.47
2023-11-18T21:36:37.925Z,100301.97
2023-11-18T21:39:39.394Z,100286.50
2023-11-18T21:42:40.916Z,100278.06
2023-11-18T21:45:42.399Z,100264.53
2023-11-18T21:48:43.924Z,100269.53
2023-11-18T21:51:45.413Z,100284.50
2023-11-18T21:54:46.906Z,100273.84
2023-11-18T21:57:48.411Z,100250.44
2023-11-18T22:00:49.885Z,100252.72
2023-11-18T22:03:51.503Z,100248.28
2023-11-18T22:06:55.207Z,100243.84
2023-11-18T22:09:56.916Z,100240.59
2023-11-18T22:12:58.458Z,100237.41
2023-11-18T22:16:00.069Z,100239.41
2023-11-18T22:19:01.616Z,100241.53
2023-11-18T22:22:03.131Z,100254.81
2023-11-18T22:25:04.608Z,100245.78
2023-11-18T22:28:06.094Z,100238.56
2023-11-18T22:31:07.630Z,100240.84
2023-11-18T22:34:09.196Z,100230.84
2023-11-18T22:37:10.778Z,100219.47
2023-11-18T22:40:12.263Z,100216.88
2023-11-18T22:43:13.773Z,100206.41
2023-11-18T22:46:15.272Z,100201.41
2023-11-18T22:49:16.783Z,100211.03
2023-11-18T22:52:18.375Z,100215.94
2023-11-18T22:55:19.938Z,100201.66
2023-11-18T22:58:21.473Z,100201.84
2023-11-18T23:01:22.990Z,100202.81
2023-11-18T23:04:24.509Z,100191.84
2023-11-18T23:07:26.156Z,100207.69
2023-11-18T23:10:27.635Z,100202.88
2023-11-18T23:13:29.169Z,100199.00
2023-11-18T23:16:30.711Z,100177.56
2023-11-18T23:19:36.285Z,100184.13
2023-11-18T23:22:39.950Z,100184.41
2023-11-18T23:25:41.483Z,100200.94
2023-11-18T23:28:42.994Z,100192.50
2023-11-18T23:31:44.592Z,100179.53
2023-11-18T23:34:46.093Z,100173.78
2023-11-18T23:37:47.645Z,100172.03
2023-11-18T23:40:49.191Z,100164.16
2023-11-18T23:43:50.723Z,100154.44
2023-11-18T23:46:52.384Z,100146.25
2023-11-18T23:52:58.351Z,100139.16
2023-11-18T23:55:59.852Z,100140.41
2023-11-18T23:59:04.472Z,100164.75
